Time;durP1;ratioP1;P1;durP2;ratioP2;P2;SDS_P1;SDS_P2;PMS_P1;PMS_P2;Temp;Humidity;BMP_temperature;BMP_pressure;BME280_temperature;BME280_humidity;BME280_pressure;Samples;Min_cycle;Max_cycle;Signal;HPM_P1;HPM_P2
2023/10/07 00:00:26;;;;;;;;;4.00;4.00;;;;;;;;5050076;28;10156;-83
2023/10/07 00:02:55;;;;;;;;;6.00;5.50;;;;;;;;5050719;28;10148;-86
2023/10/07 00:05:27;;;;;;;;;5.50;5.50;;;;;;;;5050503;28;10287;-84
2023/10/07 00:08:00;;;;;;;;;8.00;7.00;;;;;;;;5056114;28;10251;-86
2023/10/07 00:10:29;;;;;;;;;4.25;4.25;;;;;;;;5042429;28;10321;-86
2023/10/07 00:12:58;;;;;;;;;7.50;6.00;;;;;;;;5052169;28;10253;-80
2023/10/07 00:15:29;;;;;;;;;5.00;5.00;;;;;;;;5050495;28;10177;-85
2023/10/07 00:18:10;;;;;;;;;5.25;4.50;;;;;;;;5053296;28;10808;-84
2023/10/07 00:20:41;;;;;;;;;6.75;5.00;;;;;;;;5056298;28;10264;-79
2023/10/07 00:23:09;;;;;;;;;6.00;4.00;;;;;;;;5049799;28;10213;-84
2023/10/07 00:25:49;;;;;;;;;5.00;5.00;;;;;;;;5050051;28;10391;-78
2023/10/07 00:28:27;;;;;;;;;6.50;6.50;;;;;;;;5050538;28;10164;-81
2023/10/07 00:31:02;;;;;;;;;7.75;4.75;;;;;;;;5049207;28;10403;-82
2023/10/07 00:33:30;;;;;;;;;6.00;6.00;;;;;;;;5055210;28;11110;-82
2023/10/07 00:36:04;;;;;;;;;5.25;5.25;;;;;;;;5042963;28;10408;-82
2023/10/07 00:38:37;;;;;;;;;6.00;5.00;;;;;;;;5052328;28;10283;-82
2023/10/07 00:41:11;;;;;;;;;7.00;5.50;;;;;;;;5053065;28;10367;-81
2023/10/07 00:43:38;;;;;;;;;5.50;5.50;;;;;;;;5049852;28;10254;-83
2023/10/07 00:46:10;;;;;;;;;5.75;5.75;;;;;;;;5049639;28;10367;-84
2023/10/07 00:48:46;;;;;;;;;8.25;5.00;;;;;;;;5049993;28;10449;-83
2023/10/07 00:51:17;;;;;;;;;3.25;3.25;;;;;;;;5051279;28;10219;-85
2023/10/07 00:53:53;;;;;;;;;6.50;6.50;;;;;;;;5049680;28;10369;-82
2023/10/07 00:56:24;;;;;;;;;6.00;6.00;;;;;;;;5049351;28;10305;-84
2023/10/07 00:58:53;;;;;;;;;6.50;6.00;;;;;;;;5049466;28;10384;-82
2023/10/07 01:01:21;;;;;;;;;8.25;6.00;;;;;;;;5048595;28;10475;-80
2023/10/07 01:03:49;;;;;;;;;5.00;5.00;;;;;;;;5062485;28;10454;-80
2023/10/07 01:06:25;;;;;;;;;5.75;5.75;;;;;;;;5051191;28;10480;-80
2023/10/07 01:09:07;;;;;;;;;7.00;7.00;;;;;;;;5050628;28;10585;-80
2023/10/07 01:11:40;;;;;;;;;6.25;6.25;;;;;;;;5051366;28;10323;-81
2023/10/07 01:14:09;;;;;;;;;9.25;6.25;;;;;;;;5051758;28;10387;-79
2023/10/07 01:16:42;;;;;;;;;9.25;8.75;;;;;;;;5052443;28;10330;-83
2023/10/07 01:19:28;;;;;;;;;9.25;7.25;;;;;;;;5050781;28;10310;-83
2023/10/07 01:21:58;;;;;;;;;5.00;4.50;;;;;;;;5036593;28;10459;-79
2023/10/07 01:24:44;;;;;;;;;5.50;4.50;;;;;;;;5048143;28;10990;-79
2023/10/07 01:27:21;;;;;;;;;7.50;7.50;;;;;;;;5048518;28;10236;-79
2023/10/07 01:29:50;;;;;;;;;10.00;10.00;;;;;;;;5047359;28;10398;-79
2023/10/07 01:32:19;;;;;;;;;8.25;8.25;;;;;;;;5048773;28;10388;-87
2023/10/07 01:34:52;;;;;;;;;8.00;8.00;;;;;;;;5048799;28;10415;-85
2023/10/07 01:37:21;;;;;;;;;10.00;6.00;;;;;;;;5048387;28;10231;-84
2023/10/07 01:39:52;;;;;;;;;10.25;8.50;;;;;;;;5051512;28;10520;-84
2023/10/07 01:42:26;;;;;;;;;7.00;7.00;;;;;;;;5053131;28;10468;-80
2023/10/07 01:44:56;;;;;;;;;7.75;7.75;;;;;;;;5048949;28;10482;-84
2023/10/07 01:47:25;;;;;;;;;11.75;10.00;;;;;;;;5048558;28;10471;-81
2023/10/07 01:49:55;;;;;;;;;10.00;10.00;;;;;;;;5048804;28;10579;-82
2023/10/07 01:52:26;;;;;;;;;8.50;8.50;;;;;;;;5048112;28;10991;-86
2023/10/07 01:54:55;;;;;;;;;9.75;9.75;;;;;;;;5048412;28;10549;-83
2023/10/07 01:57:22;;;;;;;;;5.00;5.00;;;;;;;;5048245;28;10693;-84
2023/10/07 01:59:52;;;;;;;;;7.75;7.75;;;;;;;;5048212;28;10533;-85
2023/10/07 02:02:25;;;;;;;;;9.00;7.00;;;;;;;;5047997;28;10268;-86
2023/10/07 02:04:55;;;;;;;;;11.75;8.50;;;;;;;;5048334;28;10410;-86
2023/10/07 02:07:23;;;;;;;;;10.25;10.00;;;;;;;;5048735;28;10507;-85
2023/10/07 02:09:54;;;;;;;;;11.00;11.00;;;;;;;;5049071;28;10585;-86
2023/10/07 02:12:24;;;;;;;;;10.00;10.00;;;;;;;;5054671;28;10329;-84
2023/10/07 02:14:52;;;;;;;;;11.00;11.00;;;;;;;;5049778;28;10526;-82
2023/10/07 02:17:25;;;;;;;;;12.00;12.00;;;;;;;;5048902;28;10275;-82
2023/10/07 02:19:53;;;;;;;;;10.75;10.75;;;;;;;;5048050;28;10512;-84
2023/10/07 02:22:27;;;;;;;;;6.00;6.00;;;;;;;;5048849;28;10180;-85
2023/10/07 02:25:03;;;;;;;;;15.25;11.25;;;;;;;;5048506;28;9936;-86
2023/10/07 02:27:38;;;;;;;;;12.75;10.00;;;;;;;;5048546;28;10195;-79
2023/10/07 02:30:06;;;;;;;;;13.00;13.00;;;;;;;;5046979;28;10220;-82
2023/10/07 02:32:34;;;;;;;;;9.75;9.75;;;;;;;;5047872;28;10211;-81
2023/10/07 02:35:02;;;;;;;;;16.75;15.00;;;;;;;;5048130;28;10103;-82
2023/10/07 02:37:31;;;;;;;;;11.75;11.75;;;;;;;;5047497;28;10130;-79
2023/10/07 02:40:18;;;;;;;;;14.75;13.00;;;;;;;;5048794;28;10023;-81
2023/10/07 02:42:46;;;;;;;;;12.50;12.50;;;;;;;;5053407;28;10019;-81
2023/10/07 02:45:20;;;;;;;;;9.25;9.25;;;;;;;;5052740;28;10124;-80
2023/10/07 02:47:50;;;;;;;;;15.25;12.00;;;;;;;;5052160;28;9795;-80
2023/10/07 02:50:17;;;;;;;;;12.50;11.00;;;;;;;;5052198;28;10045;-80
2023/10/07 02:52:46;;;;;;;;;9.50;9.25;;;;;;;;5052981;28;9889;-81
2023/10/07 02:55:28;;;;;;;;;11.25;11.25;;;;;;;;5053586;28;9810;-79
2023/10/07 02:57:56;;;;;;;;;10.25;10.25;;;;;;;;5044404;28;9910;-80
2023/10/07 03:00:35;;;;;;;;;11.25;9.25;;;;;;;;5053569;28;9737;-80
2023/10/07 03:03:20;;;;;;;;;12.00;11.75;;;;;;;;5053564;28;9713;-80
2023/10/07 03:05:57;;;;;;;;;13.75;11.50;;;;;;;;5055405;28;9869;-81
2023/10/07 03:08:39;;;;;;;;;12.50;11.25;;;;;;;;5052351;28;9870;-88
2023/10/07 03:11:11;;;;;;;;;12.50;8.00;;;;;;;;5052167;28;9888;-83
2023/10/07 03:13:45;;;;;;;;;8.75;8.75;;;;;;;;5057803;28;9988;-88
2023/10/07 03:19:20;;;;;;;;;13.25;11.00;;;;;;;;5043281;28;9898;-88
2023/10/07 03:22:06;;;;;;;;;9.25;7.25;;;;;;;;5051640;28;10730;-85
2023/10/07 03:24:41;;;;;;;;;11.75;9.50;;;;;;;;5051268;28;9855;-88
2023/10/07 03:27:22;;;;;;;;;11.50;10.50;;;;;;;;5051514;28;10146;-85
2023/10/07 03:30:12;;;;;;;;;13.00;13.00;;;;;;;;5050871;28;9868;-86
2023/10/07 03:32:57;;;;;;;;;11.50;10.00;;;;;;;;5051021;28;9817;-87
2023/10/07 03:35:46;;;;;;;;;12.25;8.75;;;;;;;;5051520;28;9937;-87
2023/10/07 03:38:13;;;;;;;;;9.25;7.25;;;;;;;;5039039;28;9946;-88
2023/10/07 03:40:48;;;;;;;;;14.00;11.50;;;;;;;;5047302;28;9916;-79
2023/10/07 03:43:16;;;;;;;;;9.50;9.50;;;;;;;;5054428;28;9772;-88
2023/10/07 03:45:45;;;;;;;;;11.00;10.00;;;;;;;;5057194;28;9865;-86
2023/10/07 03:48:24;;;;;;;;;12.50;12.50;;;;;;;;5051297;28;10622;-81
2023/10/07 03:51:05;;;;;;;;;11.00;11.00;;;;;;;;5049435;28;9856;-85
2023/10/07 03:53:33;;;;;;;;;12.75;11.75;;;;;;;;5049492;28;9955;-82
2023/10/07 03:56:06;;;;;;;;;12.00;10.00;;;;;;;;5050049;28;10051;-82
2023/10/07 03:58:37;;;;;;;;;10.00;9.00;;;;;;;;5049879;28;9944;-84
2023/10/07 04:01:11;;;;;;;;;10.00;10.00;;;;;;;;5049895;28;9885;-87
2023/10/07 04:03:46;;;;;;;;;9.50;7.00;;;;;;;;5049834;28;9970;-85
2023/10/07 04:06:14;;;;;;;;;11.75;10.00;;;;;;;;5050188;28;9934;-84
2023/10/07 04:08:41;;;;;;;;;10.25;9.50;;;;;;;;5049179;28;10109;-83
2023/10/07 04:11:16;;;;;;;;;9.00;9.00;;;;;;;;5050256;28;9952;-87
2023/10/07 04:13:45;;;;;;;;;8.75;8.75;;;;;;;;5051485;28;9938;-81
2023/10/07 04:16:22;;;;;;;;;5.25;5.25;;;;;;;;5053110;28;9890;-80
2023/10/07 04:18:50;;;;;;;;;7.75;7.75;;;;;;;;5039640;28;9812;-81
2023/10/07 04:21:17;;;;;;;;;11.25;9.00;;;;;;;;5049402;28;10055;-85
2023/10/07 04:23:45;;;;;;;;;9.00;9.00;;;;;;;;5049320;28;10125;-85
2023/10/07 04:26:19;;;;;;;;;10.00;10.00;;;;;;;;5049236;28;10621;-83
2023/10/07 04:28:48;;;;;;;;;12.50;11.25;;;;;;;;5049688;28;10153;-84
2023/10/07 04:31:17;;;;;;;;;7.50;7.00;;;;;;;;5048496;28;9867;-85
2023/10/07 04:33:48;;;;;;;;;10.00;10.00;;;;;;;;5049347;28;9940;-80
2023/10/07 04:36:31;;;;;;;;;11.75;9.25;;;;;;;;5049959;28;9875;-81
2023/10/07 04:38:59;;;;;;;;;7.50;7.50;;;;;;;;5045135;28;10016;-81
2023/10/07 04:41:32;;;;;;;;;11.50;9.50;;;;;;;;5053041;28;9952;-79
2023/10/07 04:46:55;;;;;;;;;10.25;8.00;;;;;;;;5032840;28;9952;-82
2023/10/07 04:49:26;;;;;;;;;5.75;5.75;;;;;;;;5054282;28;10805;-80
2023/10/07 04:51:58;;;;;;;;;7.50;7.50;;;;;;;;5053768;28;10130;-83
2023/10/07 04:54:25;;;;;;;;;11.75;8.25;;;;;;;;5040410;28;10094;-84
2023/10/07 04:57:00;;;;;;;;;10.75;9.50;;;;;;;;5048688;28;10325;-80
2023/10/07 04:59:28;;;;;;;;;7.25;7.25;;;;;;;;5049092;28;10159;-85
2023/10/07 05:01:56;;;;;;;;;7.00;7.00;;;;;;;;5047798;28;10142;-87
2023/10/07 05:04:25;;;;;;;;;5.75;5.75;;;;;;;;5048448;28;10109;-79
2023/10/07 05:06:53;;;;;;;;;12.50;11.00;;;;;;;;5048533;28;10104;-86
2023/10/07 05:09:21;;;;;;;;;9.50;9.50;;;;;;;;5048993;28;10236;-88
2023/10/07 05:11:49;;;;;;;;;9.25;9.25;;;;;;;;5048930;28;10257;-87
2023/10/07 05:14:17;;;;;;;;;8.50;8.00;;;;;;;;5049877;28;10171;-87
2023/10/07 05:16:47;;;;;;;;;11.50;9.00;;;;;;;;5053975;28;10097;-87
2023/10/07 05:19:22;;;;;;;;;9.00;6.50;;;;;;;;5051367;28;10215;-85
2023/10/07 05:21:59;;;;;;;;;9.25;9.25;;;;;;;;5048586;28;10240;-85
2023/10/07 05:24:30;;;;;;;;;8.25;8.25;;;;;;;;5047407;28;10231;-83
2023/10/07 05:26:59;;;;;;;;;14.00;11.75;;;;;;;;5048682;28;10230;-87
2023/10/07 05:29:27;;;;;;;;;8.00;8.00;;;;;;;;5048387;28;10333;-87
2023/10/07 05:31:55;;;;;;;;;10.25;7.75;;;;;;;;5047349;28;10245;-81
2023/10/07 05:34:28;;;;;;;;;7.00;7.00;;;;;;;;5048090;28;10371;-85
2023/10/07 05:36:59;;;;;;;;;13.25;10.75;;;;;;;;5048574;28;10311;-86
2023/10/07 05:39:26;;;;;;;;;11.00;9.25;;;;;;;;5048094;28;10269;-86
2023/10/07 05:41:53;;;;;;;;;8.75;8.75;;;;;;;;5048452;28;10255;-86
2023/10/07 05:44:21;;;;;;;;;8.00;8.00;;;;;;;;5047991;28;10317;-85
2023/10/07 05:46:48;;;;;;;;;9.50;9.50;;;;;;;;5053989;28;10402;-84
2023/10/07 05:49:16;;;;;;;;;11.00;8.00;;;;;;;;5051919;28;10483;-79
2023/10/07 05:51:47;;;;;;;;;6.00;6.00;;;;;;;;5049487;28;10425;-85
2023/10/07 05:54:18;;;;;;;;;5.75;5.75;;;;;;;;5048067;28;10449;-84
2023/10/07 05:56:47;;;;;;;;;9.00;9.00;;;;;;;;5047580;28;10459;-80
2023/10/07 05:59:17;;;;;;;;;9.50;8.50;;;;;;;;5035664;28;10369;-86
2023/10/07 06:01:44;;;;;;;;;10.25;10.25;;;;;;;;5047730;28;10185;-84
2023/10/07 06:04:12;;;;;;;;;9.00;9.00;;;;;;;;5048546;28;10519;-81
2023/10/07 06:06:42;;;;;;;;;7.75;7.75;;;;;;;;5047800;28;10466;-86
2023/10/07 06:09:14;;;;;;;;;13.00;11.50;;;;;;;;5048725;28;10522;-84
2023/10/07 06:11:44;;;;;;;;;12.50;11.00;;;;;;;;5047409;28;10526;-81
2023/10/07 06:14:18;;;;;;;;;9.75;9.75;;;;;;;;5048932;28;10619;-83
2023/10/07 06:16:45;;;;;;;;;6.25;6.25;;;;;;;;5053055;28;10401;-80
2023/10/07 06:19:13;;;;;;;;;6.50;6.50;;;;;;;;5055178;28;10384;-77
2023/10/07 06:21:50;;;;;;;;;6.50;6.50;;;;;;;;5053452;28;10238;-85
2023/10/07 06:24:21;;;;;;;;;13.00;10.50;;;;;;;;5052528;28;10181;-82
2023/10/07 06:26:49;;;;;;;;;10.00;9.25;;;;;;;;5053419;28;10262;-80
2023/10/07 06:29:19;;;;;;;;;9.25;7.25;;;;;;;;5053664;28;10443;-76
2023/10/07 06:31:54;;;;;;;;;14.00;12.25;;;;;;;;5053738;28;10241;-80
2023/10/07 06:34:25;;;;;;;;;9.75;9.75;;;;;;;;5053175;28;11508;-75
2023/10/07 06:36:54;;;;;;;;;9.00;6.25;;;;;;;;5054564;28;10242;-79
2023/10/07 06:39:27;;;;;;;;;11.00;11.00;;;;;;;;5053384;28;10176;-83
2023/10/07 06:41:55;;;;;;;;;11.25;10.00;;;;;;;;5051164;28;10194;-79
2023/10/07 06:44:24;;;;;;;;;13.00;10.00;;;;;;;;5056574;28;10219;-82
2023/10/07 06:46:56;;;;;;;;;12.50;7.25;;;;;;;;5053756;28;11185;-81
2023/10/07 06:49:24;;;;;;;;;14.00;11.00;;;;;;;;5055325;28;10093;-82
2023/10/07 06:51:54;;;;;;;;;11.25;8.25;;;;;;;;5051329;28;10111;-81
2023/10/07 06:54:23;;;;;;;;;11.75;9.75;;;;;;;;5050406;28;10038;-80
2023/10/07 06:56:56;;;;;;;;;13.50;11.75;;;;;;;;5050228;28;10869;-79
2023/10/07 06:59:27;;;;;;;;;13.75;11.00;;;;;;;;5050790;28;9992;-81
2023/10/07 07:01:55;;;;;;;;;8.75;8.75;;;;;;;;5049641;28;9813;-78
2023/10/07 07:04:23;;;;;;;;;11.00;11.00;;;;;;;;5050530;28;9794;-78
2023/10/07 07:07:11;;;;;;;;;16.25;14.25;;;;;;;;5050176;28;10706;-81
2023/10/07 07:09:50;;;;;;;;;11.00;11.00;;;;;;;;5050439;28;9936;-79
2023/10/07 07:12:21;;;;;;;;;14.00;14.00;;;;;;;;5050758;28;9813;-78
2023/10/07 07:14:51;;;;;;;;;16.50;16.50;;;;;;;;5050280;28;9797;-80
2023/10/07 07:17:43;;;;;;;;;16.50;15.75;;;;;;;;5053070;28;10298;-78
2023/10/07 07:20:30;;;;;;;;;12.25;12.25;;;;;;;;5054115;28;9766;-76
2023/10/07 07:23:09;;;;;;;;;14.00;11.75;;;;;;;;5051371;28;9701;-75
2023/10/07 07:25:39;;;;;;;;;10.50;10.50;;;;;;;;5050628;28;9693;-83
2023/10/07 07:28:09;;;;;;;;;17.00;15.25;;;;;;;;5049149;28;9485;-76
2023/10/07 07:30:36;;;;;;;;;15.00;11.50;;;;;;;;5050038;28;9548;-81
2023/10/07 07:33:08;;;;;;;;;19.50;19.00;;;;;;;;5048645;28;9565;-74
2023/10/07 07:35:43;;;;;;;;;12.00;12.00;;;;;;;;5050145;28;9690;-72
2023/10/07 07:38:29;;;;;;;;;19.00;19.00;;;;;;;;5050495;28;9340;-79
2023/10/07 07:41:05;;;;;;;;;20.00;14.50;;;;;;;;5049275;28;9639;-74
2023/10/07 07:43:37;;;;;;;;;13.33;13.33;;;;;;;;5049879;28;9482;-87
2023/10/07 07:48:52;;;;;;;;;13.00;11.33;;;;;;;;5047616;28;9372;-71
2023/10/07 07:51:24;;;;;;;;;15.00;13.00;;;;;;;;5049721;28;9260;-74
2023/10/07 07:53:53;;;;;;;;;14.33;14.00;;;;;;;;5048852;28;9323;-72
2023/10/07 07:56:22;;;;;;;;;12.67;12.67;;;;;;;;5049043;28;9306;-72
2023/10/07 07:58:49;;;;;;;;;15.00;15.00;;;;;;;;5048529;28;9189;-75
2023/10/07 08:01:18;;;;;;;;;14.00;14.00;;;;;;;;5048982;28;9313;-72
2023/10/07 08:03:45;;;;;;;;;17.00;13.00;;;;;;;;5048665;28;9083;-72
2023/10/07 08:06:19;;;;;;;;;10.75;10.75;;;;;;;;5049287;28;8877;-72
2023/10/07 08:08:47;;;;;;;;;14.75;13.75;;;;;;;;5049249;28;8829;-72
2023/10/07 08:11:18;;;;;;;;;9.75;9.75;;;;;;;;5051557;28;8865;-75
2023/10/07 08:13:48;;;;;;;;;6.50;6.50;;;;;;;;5050331;28;8864;-82
2023/10/07 08:16:21;;;;;;;;;14.50;13.25;;;;;;;;5051481;28;8918;-73
2023/10/07 08:18:53;;;;;;;;;10.25;8.75;;;;;;;;5049892;28;8903;-74
2023/10/07 08:21:28;;;;;;;;;15.00;15.00;;;;;;;;5051262;28;8873;-74
2023/10/07 08:24:01;;;;;;;;;13.50;13.50;;;;;;;;5049900;28;8857;-78
2023/10/07 08:26:28;;;;;;;;;11.50;9.00;;;;;;;;5048369;28;8850;-75
2023/10/07 08:29:00;;;;;;;;;11.00;11.00;;;;;;;;5048667;28;8845;-74
2023/10/07 08:31:49;;;;;;;;;10.00;10.00;;;;;;;;5047904;28;8818;-74
2023/10/07 08:34:17;;;;;;;;;8.50;8.50;;;;;;;;5048182;28;8879;-73
2023/10/07 08:36:48;;;;;;;;;7.50;7.50;;;;;;;;5048755;28;8849;-73
2023/10/07 08:39:18;;;;;;;;;8.75;8.75;;;;;;;;5046299;28;8867;-73
2023/10/07 08:41:52;;;;;;;;;11.00;9.25;;;;;;;;5048312;28;8911;-74
2023/10/07 08:44:28;;;;;;;;;7.00;7.00;;;;;;;;5047410;28;8857;-72
2023/10/07 08:47:04;;;;;;;;;10.75;9.25;;;;;;;;5048272;28;8857;-72
2023/10/07 08:49:33;;;;;;;;;9.50;8.00;;;;;;;;5049634;28;8853;-72
2023/10/07 08:52:08;;;;;;;;;7.75;7.75;;;;;;;;5047742;28;8881;-71
2023/10/07 08:54:38;;;;;;;;;7.50;7.50;;;;;;;;5048559;28;8865;-72
2023/10/07 08:57:09;;;;;;;;;8.75;8.00;;;;;;;;5047887;28;9326;-73
2023/10/07 08:59:40;;;;;;;;;9.25;9.25;;;;;;;;5048121;28;8877;-73
2023/10/07 09:02:18;;;;;;;;;7.75;7.75;;;;;;;;5047201;28;8802;-74
2023/10/07 09:04:50;;;;;;;;;7.25;7.25;;;;;;;;5048048;28;8860;-80
2023/10/07 09:07:20;;;;;;;;;9.00;9.00;;;;;;;;5047832;28;8861;-75
2023/10/07 09:09:48;;;;;;;;;7.00;7.00;;;;;;;;5047190;28;8853;-72
2023/10/07 09:12:18;;;;;;;;;6.50;6.50;;;;;;;;5048064;28;8948;-74
2023/10/07 09:14:51;;;;;;;;;8.25;8.25;;;;;;;;5047393;28;8877;-77
2023/10/07 09:17:21;;;;;;;;;8.00;8.00;;;;;;;;5047615;28;8865;-75
2023/10/07 09:19:52;;;;;;;;;6.75;6.75;;;;;;;;5047634;28;8845;-75
2023/10/07 09:22:24;;;;;;;;;7.25;6.75;;;;;;;;5048519;28;8865;-72
2023/10/07 09:24:54;;;;;;;;;7.25;7.25;;;;;;;;5047498;28;8864;-72
2023/10/07 09:27:36;;;;;;;;;6.00;6.00;;;;;;;;5047544;28;8852;-72
2023/10/07 09:30:34;;;;;;;;;5.25;4.75;;;;;;;;5046817;28;8927;-71
2023/10/07 09:32:59;;;;;;;;;7.50;7.50;;;;;;;;5047132;28;8833;-73
2023/10/07 09:35:27;;;;;;;;;6.50;6.50;;;;;;;;5047653;28;8889;-73
2023/10/07 09:37:55;;;;;;;;;7.00;7.00;;;;;;;;5046784;28;8854;-71
2023/10/07 09:43:07;;;;;;;;;8.00;6.40;;;;;;;;5036331;28;8856;-73
2023/10/07 09:45:38;;;;;;;;;6.60;6.40;;;;;;;;5047046;28;8968;-73
2023/10/07 09:48:07;;;;;;;;;5.40;5.40;;;;;;;;5047761;28;9407;-71
2023/10/07 09:50:37;;;;;;;;;5.80;5.80;;;;;;;;5046864;28;8857;-75
2023/10/07 09:53:20;;;;;;;;;6.00;6.00;;;;;;;;5047410;28;8857;-72
2023/10/07 09:56:00;;;;;;;;;6.60;6.60;;;;;;;;5048631;28;8861;-73
2023/10/07 09:58:41;;;;;;;;;8.40;7.00;;;;;;;;5046541;28;8869;-73
2023/10/07 10:01:32;;;;;;;;;4.40;4.40;;;;;;;;5042456;28;8808;-73
2023/10/07 10:04:21;;;;;;;;;7.60;5.20;;;;;;;;5039896;28;8873;-72
2023/10/07 10:07:13;;;;;;;;;6.40;6.00;;;;;;;;5038106;28;8881;-73
2023/10/07 10:10:00;;;;;;;;;8.80;6.40;;;;;;;;5048943;28;9670;-80
2023/10/07 10:12:48;;;;;;;;;8.80;6.80;;;;;;;;5038437;28;8987;-74
2023/10/07 10:18:02;;;;;;;;;74.25;67.25;;;;;;;;5047434;28;8901;-77
2023/10/07 10:20:43;;;;;;;;;3.00;3.00;;;;;;;;5039222;28;10906;-81
2023/10/07 10:23:19;;;;;;;;;54.75;44.00;;;;;;;;5045487;28;8826;-80
2023/10/07 10:25:48;;;;;;;;;76.33;68.00;;;;;;;;5057009;28;8855;-75
2023/10/07 10:28:22;;;;;;;;;23.80;21.80;;;;;;;;5034465;28;9416;-72
2023/10/07 10:30:50;;;;;;;;;808.20;723.40;;;;;;;;5046419;28;8811;-73
2023/10/07 10:33:23;;;;;;;;;353.00;329.75;;;;;;;;5043188;28;8824;-77
2023/10/07 10:35:51;;;;;;;;;165.00;165.00;;;;;;;;5042587;28;8869;-79
2023/10/07 10:38:19;;;;;;;;;4.60;4.60;;;;;;;;5046924;28;8857;-83
2023/10/07 10:40:46;;;;;;;;;8.80;7.20;;;;;;;;5045591;28;8864;-72
2023/10/07 10:43:24;;;;;;;;;5.80;5.80;;;;;;;;5045377;28;8876;-83
2023/10/07 10:46:02;;;;;;;;;0.00;0.00;;;;;;;;5043546;28;8864;-78
2023/10/07 10:48:30;;;;;;;;;3.00;3.00;;;;;;;;5042523;28;8882;-81
2023/10/07 10:50:58;;;;;;;;;7.00;7.00;;;;;;;;5043476;28;8841;-78
2023/10/07 10:53:29;;;;;;;;;4.60;4.60;;;;;;;;5041314;28;8826;-84
2023/10/07 10:55:56;;;;;;;;;4.80;3.40;;;;;;;;5042727;28;9597;-82
2023/10/07 10:58:23;;;;;;;;;4.20;4.20;;;;;;;;5045967;28;8866;-80
2023/10/07 11:00:52;;;;;;;;;4.40;4.40;;;;;;;;5041569;28;8811;-82
2023/10/07 11:03:20;;;;;;;;;5.40;5.40;;;;;;;;5043498;28;8879;-82
2023/10/07 11:05:49;;;;;;;;;5.00;5.00;;;;;;;;5039062;28;8934;-82
2023/10/07 11:08:22;;;;;;;;;10.40;6.20;;;;;;;;5044045;28;8877;-73
2023/10/07 11:10:51;;;;;;;;;2.80;2.80;;;;;;;;5040462;28;8876;-75
2023/10/07 11:13:18;;;;;;;;;8.40;7.80;;;;;;;;5046459;28;8968;-76
2023/10/07 11:16:04;;;;;;;;;0.00;0.00;;;;;;;;5046010;28;8903;-82
2023/10/07 11:18:34;;;;;;;;;5.20;3.80;;;;;;;;5048741;28;8888;-78
2023/10/07 11:21:09;;;;;;;;;2.40;2.40;;;;;;;;5044946;28;8914;-74
2023/10/07 11:23:45;;;;;;;;;6.00;4.00;;;;;;;;5037730;28;9493;-72
2023/10/07 11:26:14;;;;;;;;;5.20;3.80;;;;;;;;5048226;28;8964;-73
2023/10/07 11:28:42;;;;;;;;;5.20;4.60;;;;;;;;5048886;28;8968;-71
2023/10/07 11:31:10;;;;;;;;;2.00;2.00;;;;;;;;5045012;28;8901;-72
2023/10/07 11:33:38;;;;;;;;;3.80;3.80;;;;;;;;5039844;28;8864;-78
2023/10/07 11:36:07;;;;;;;;;4.00;4.00;;;;;;;;5042761;28;8885;-79
2023/10/07 11:38:34;;;;;;;;;4.00;4.00;;;;;;;;5049465;28;8984;-76
2023/10/07 11:41:04;;;;;;;;;4.20;4.20;;;;;;;;5051692;28;8960;-73
2023/10/07 11:43:33;;;;;;;;;5.20;3.40;;;;;;;;5044740;28;8857;-73
2023/10/07 11:46:00;;;;;;;;;5.80;5.80;;;;;;;;5050931;28;8964;-78
2023/10/07 11:48:27;;;;;;;;;5.40;5.40;;;;;;;;5053240;28;8996;-75
2023/10/07 11:50:55;;;;;;;;;7.20;6.00;;;;;;;;5053061;28;8858;-85
2023/10/07 11:53:25;;;;;;;;;3.60;3.60;;;;;;;;5050519;28;8893;-83
2023/10/07 11:55:52;;;;;;;;;8.80;5.00;;;;;;;;5038581;28;8950;-76
2023/10/07 11:58:19;;;;;;;;;4.00;3.00;;;;;;;;5048458;28;8854;-78
2023/10/07 12:00:46;;;;;;;;;4.40;4.40;;;;;;;;5047270;28;8862;-82
2023/10/07 12:03:14;;;;;;;;;5.40;4.40;;;;;;;;5048757;28;8897;-72
2023/10/07 12:05:43;;;;;;;;;4.20;4.20;;;;;;;;5042316;28;9608;-72
2023/10/07 12:08:11;;;;;;;;;3.60;3.60;;;;;;;;5039476;28;8884;-84
2023/10/07 12:10:43;;;;;;;;;3.00;3.00;;;;;;;;5048841;28;8888;-81
2023/10/07 12:13:11;;;;;;;;;2.80;2.80;;;;;;;;5048797;28;8861;-76
2023/10/07 12:15:41;;;;;;;;;3.80;3.80;;;;;;;;5048811;28;8873;-80
2023/10/07 12:18:12;;;;;;;;;5.00;5.00;;;;;;;;5048809;28;8861;-76
2023/10/07 12:20:40;;;;;;;;;5.00;5.00;;;;;;;;5049263;28;8885;-76
2023/10/07 12:23:09;;;;;;;;;4.80;3.60;;;;;;;;5049415;28;8837;-79
2023/10/07 12:25:37;;;;;;;;;4.40;3.20;;;;;;;;5048876;28;8861;-79
2023/10/07 12:28:08;;;;;;;;;3.80;3.00;;;;;;;;5048680;28;8876;-80
2023/10/07 12:30:44;;;;;;;;;6.00;6.00;;;;;;;;5048354;28;8793;-77
2023/10/07 12:33:11;;;;;;;;;4.00;4.00;;;;;;;;5037069;28;8837;-80
2023/10/07 12:35:38;;;;;;;;;6.20;4.40;;;;;;;;5048196;28;9003;-77
2023/10/07 12:38:09;;;;;;;;;5.00;4.60;;;;;;;;5049089;28;8865;-79
2023/10/07 12:40:41;;;;;;;;;3.40;3.40;;;;;;;;5048574;28;8873;-76
2023/10/07 12:43:10;;;;;;;;;4.60;4.60;;;;;;;;5048226;28;8934;-81
2023/10/07 12:45:37;;;;;;;;;3.40;3.40;;;;;;;;5048701;28;8853;-74
2023/10/07 12:48:06;;;;;;;;;3.00;3.00;;;;;;;;5048829;28;8838;-78
2023/10/07 12:50:36;;;;;;;;;2.20;2.20;;;;;;;;5048550;28;8873;-74
2023/10/07 12:53:06;;;;;;;;;4.20;4.20;;;;;;;;5048936;28;9000;-77
2023/10/07 12:55:39;;;;;;;;;5.00;5.00;;;;;;;;5047297;28;8826;-74
2023/10/07 12:58:15;;;;;;;;;4.20;4.00;;;;;;;;5048608;28;8849;-73
2023/10/07 13:00:42;;;;;;;;;3.00;3.00;;;;;;;;5047170;28;8781;-74
2023/10/07 13:03:12;;;;;;;;;5.00;5.00;;;;;;;;5048372;28;8857;-74
2023/10/07 13:05:42;;;;;;;;;5.60;4.00;;;;;;;;5047835;28;8853;-73
2023/10/07 13:08:12;;;;;;;;;3.20;3.20;;;;;;;;5047929;28;8889;-73
2023/10/07 13:10:39;;;;;;;;;4.00;4.00;;;;;;;;5035745;28;8861;-74
2023/10/07 13:13:06;;;;;;;;;3.00;3.00;;;;;;;;5047676;28;9600;-79
2023/10/07 13:15:43;;;;;;;;;6.40;5.00;;;;;;;;5048121;28;8846;-74
2023/10/07 13:18:12;;;;;;;;;5.40;4.60;;;;;;;;5047641;28;8857;-74
2023/10/07 13:20:40;;;;;;;;;3.80;3.80;;;;;;;;5048166;28;8869;-74
2023/10/07 13:23:11;;;;;;;;;3.00;3.00;;;;;;;;5048447;28;8884;-75
2023/10/07 13:25:39;;;;;;;;;4.20;4.00;;;;;;;;5049594;28;8861;-77
2023/10/07 13:28:06;;;;;;;;;1.60;1.60;;;;;;;;5050529;28;8913;-77
2023/10/07 13:30:39;;;;;;;;;3.00;3.00;;;;;;;;5049446;28;8778;-73
2023/10/07 13:33:09;;;;;;;;;2.00;2.00;;;;;;;;5050068;28;8962;-86
2023/10/07 13:35:37;;;;;;;;;2.80;2.80;;;;;;;;5050661;28;9683;-75
2023/10/07 13:38:04;;;;;;;;;4.60;2.00;;;;;;;;5047398;28;8888;-74
2023/10/07 13:40:37;;;;;;;;;2.80;2.80;;;;;;;;5046754;28;8869;-73
2023/10/07 13:43:09;;;;;;;;;4.80;2.00;;;;;;;;5046752;28;8860;-74
2023/10/07 13:45:38;;;;;;;;;2.00;2.00;;;;;;;;5047068;28;9008;-75
2023/10/07 13:48:10;;;;;;;;;4.60;3.00;;;;;;;;5047820;28;8851;-74
2023/10/07 13:50:39;;;;;;;;;3.00;3.00;;;;;;;;5046764;28;8899;-73
2023/10/07 13:53:13;;;;;;;;;2.00;2.00;;;;;;;;5047793;28;8934;-74
2023/10/07 13:55:56;;;;;;;;;3.40;3.40;;;;;;;;5046740;28;9572;-75
2023/10/07 13:58:23;;;;;;;;;1.00;1.00;;;;;;;;5047189;28;8854;-75
2023/10/07 14:00:57;;;;;;;;;2.60;2.60;;;;;;;;5046411;28;8814;-77
2023/10/07 14:03:31;;;;;;;;;2.20;2.20;;;;;;;;5047547;28;8943;-79
2023/10/07 14:06:01;;;;;;;;;3.40;3.20;;;;;;;;5046916;28;8890;-75
2023/10/07 14:08:35;;;;;;;;;2.00;2.00;;;;;;;;5046696;28;8853;-78
2023/10/07 14:11:04;;;;;;;;;2.60;1.80;;;;;;;;5047286;28;8935;-76
2023/10/07 14:13:35;;;;;;;;;4.00;4.00;;;;;;;;5046391;28;8841;-77
2023/10/07 14:16:09;;;;;;;;;2.00;2.00;;;;;;;;5047342;28;8865;-76
2023/10/07 14:18:38;;;;;;;;;2.60;2.60;;;;;;;;5046251;28;9011;-75
2023/10/07 14:21:06;;;;;;;;;3.80;3.80;;;;;;;;5047168;28;8986;-73
2023/10/07 14:23:34;;;;;;;;;1.60;0.60;;;;;;;;5047603;28;8834;-74
2023/10/07 14:26:06;;;;;;;;;4.80;3.00;;;;;;;;5047057;28;8953;-72
2023/10/07 14:28:34;;;;;;;;;2.00;2.00;;;;;;;;5036566;28;8865;-75
2023/10/07 14:31:11;;;;;;;;;2.00;2.00;;;;;;;;5044753;28;8828;-72
2023/10/07 14:33:38;;;;;;;;;2.20;2.20;;;;;;;;5046856;28;8862;-76
2023/10/07 14:36:10;;;;;;;;;3.00;3.00;;;;;;;;5046417;28;8909;-74
2023/10/07 14:38:39;;;;;;;;;2.00;2.00;;;;;;;;5051371;28;8865;-73
2023/10/07 14:41:09;;;;;;;;;3.80;3.00;;;;;;;;5050424;28;8962;-74
2023/10/07 14:43:37;;;;;;;;;2.00;2.00;;;;;;;;5050916;28;8861;-73
2023/10/07 14:46:10;;;;;;;;;2.80;2.00;;;;;;;;5049936;28;8871;-74
2023/10/07 14:48:52;;;;;;;;;3.20;3.20;;;;;;;;5050727;28;8895;-73
2023/10/07 14:51:19;;;;;;;;;2.00;2.00;;;;;;;;5039511;28;8869;-73
2023/10/07 14:53:48;;;;;;;;;3.00;1.80;;;;;;;;5049991;28;8872;-73
2023/10/07 14:56:21;;;;;;;;;2.60;2.60;;;;;;;;5050815;28;8826;-74
2023/10/07 14:58:50;;;;;;;;;2.00;2.00;;;;;;;;5050076;28;8845;-74
2023/10/07 15:01:21;;;;;;;;;1.40;1.40;;;;;;;;5050549;28;8817;-73
2023/10/07 15:03:51;;;;;;;;;3.60;3.00;;;;;;;;5050725;28;8880;-77
2023/10/07 15:06:21;;;;;;;;;4.00;4.00;;;;;;;;5051824;28;8873;-74
2023/10/07 15:08:49;;;;;;;;;2.40;2.40;;;;;;;;5053190;28;8885;-76
2023/10/07 15:11:18;;;;;;;;;2.00;2.00;;;;;;;;5054789;28;8862;-74
2023/10/07 15:13:46;;;;;;;;;2.00;2.00;;;;;;;;5053098;28;8860;-73
2023/10/07 15:16:14;;;;;;;;;3.60;3.60;;;;;;;;5054349;28;8960;-74
2023/10/07 15:18:41;;;;;;;;;2.00;2.00;;;;;;;;5054352;28;8909;-79
2023/10/07 15:21:11;;;;;;;;;1.20;1.20;;;;;;;;5050899;28;8982;-75
2023/10/07 15:23:38;;;;;;;;;2.20;2.20;;;;;;;;5049712;28;8853;-75